Time,TemperatureF,DewpointF,PressureIn,WindDirection,WindDirectionDegrees,WindSpeedMPH,WindSpeedGustMPH,Humidity,HourlyPrecipIn,Conditions,Clouds,dailyrainin,SoftwareType,DateUTC
2013-07-23 00:02:00,77.0,66.0,29.77,West,265,8.0,20.0,68,0.00,,,0.00,,2013-07-23 05:02:00,
2013-07-23 00:11:00,74.0,64.0,29.78,West,260,7.0,15.0,70,0.00,,,0.00,,2013-07-23 05:11:00,
2013-07-23 00:22:00,74.0,64.0,29.78,West,260,7.0,15.0,70,0.00,,,0.00,,2013-07-23 05:22:00,
2013-07-23 00:33:00,72.0,64.0,29.78,West,271,6.0,10.0,75,0.00,,,0.00,,2013-07-23 05:33:00,
2013-07-23 00:44:00,71.0,65.0,29.78,WNW,299,7.0,14.0,81,0.00,,,0.00,,2013-07-23 05:44:00,
2013-07-23 00:52:00,71.0,65.0,29.78,WNW,299,7.0,14.0,81,0.00,,,0.00,,2013-07-23 05:52:00,
2013-07-23 01:01:00,69.0,65.0,29.76,WNW,284,3.0,8.0,86,0.01,,,0.01,,2013-07-23 06:01:00,
2013-07-23 01:11:00,69.0,66.0,29.70,NE,53,3.0,5.0,89,0.01,,,0.01,,2013-07-23 06:11:00,
2013-07-23 01:22:00,69.0,66.0,29.70,NE,53,3.0,5.0,89,0.01,,,0.01,,2013-07-23 06:22:00,
2013-07-23 01:33:00,68.0,65.0,29.68,NNE,13,1.0,9.0,90,0.02,,,0.02,,2013-07-23 06:33:00,
2013-07-23 01:42:00,68.0,66.0,29.69,SSE,163,2.0,4.0,92,0.01,,,0.02,,2013-07-23 06:42:00,
2013-07-23 01:52:00,68.0,66.0,29.69,SSE,163,2.0,4.0,92,0.01,,,0.02,,2013-07-23 06:52:00,
2013-07-23 02:01:00,68.0,66.0,29.68,East,94,1.0,3.0,93,0.01,,,0.02,,2013-07-23 07:01:00,
2013-07-23 02:12:00,67.0,65.0,29.66,SE,139,2.0,8.0,94,0.01,,,0.02,,2013-07-23 07:12:00,
2013-07-23 02:22:00,67.0,65.0,29.66,SE,139,2.0,8.0,94,0.01,,,0.02,,2013-07-23 07:22:00,
2013-07-23 02:33:00,67.0,65.0,29.67,SW,222,2.0,6.0,93,0.00,,,0.02,,2013-07-23 07:33:00,
2013-07-23 02:42:00,67.0,65.0,29.67,SW,222,1.0,3.0,93,0.00,,,0.02,,2013-07-23 07:42:00,
2013-07-23 02:52:00,67.0,65.0,29.67,SW,222,1.0,3.0,93,0.00,,,0.02,,2013-07-23 07:52:00,
2013-07-23 03:01:00,67.0,65.0,29.69,SW,222,1.0,3.0,93,0.00,,,0.02,,2013-07-23 08:01:00,
2013-07-23 03:11:00,67.0,65.0,29.69,SW,235,2.0,5.0,94,0.00,,,0.02,,2013-07-23 08:11:00,
2013-07-23 03:22:00,67.0,65.0,29.69,SW,235,2.0,5.0,94,0.00,,,0.02,,2013-07-23 08:22:00,
2013-07-23 03:33:00,67.0,65.0,29.69,SW,227,2.0,7.0,94,0.00,,,0.02,,2013-07-23 08:33:00,
2013-07-23 03:43:00,67.0,65.0,29.70,West,275,4.0,9.0,94,0.00,,,0.02,,2013-07-23 08:43:00,
2013-07-23 03:52:00,67.0,65.0,29.70,West,275,4.0,9.0,94,0.00,,,0.02,,2013-07-23 08:52:00,
2013-07-23 04:01:00,66.0,64.0,29.70,West,268,2.0,5.0,94,0.00,,,0.02,,2013-07-23 09:01:00,
2013-07-23 04:11:00,66.0,65.0,29.70,SW,236,3.0,7.0,95,0.00,,,0.02,,2013-07-23 09:11:00,
2013-07-23 04:22:00,66.0,65.0,29.70,SW,236,3.0,7.0,95,0.00,,,0.02,,2013-07-23 09:22:00,
2013-07-23 04:33:00,65.0,64.0,29.69,SW,234,2.0,5.0,95,0.00,,,0.02,,2013-07-23 09:33:00,
2013-07-23 04:53:00,65.0,64.0,29.69,WSW,238,2.0,6.0,95,0.00,,,0.02,,2013-07-23 09:53:00,
2013-07-23 05:02:00,65.0,64.0,29.70,WSW,254,3.0,6.0,96,0.00,,,0.02,,2013-07-23 10:02:00,
2013-07-23 05:11:00,66.0,65.0,29.70,SW,223,2.0,6.0,96,0.00,,,0.02,,2013-07-23 10:11:00,
2013-07-23 05:22:00,66.0,65.0,29.70,SW,223,2.0,6.0,96,0.00,,,0.02,,2013-07-23 10:22:00,
2013-07-23 05:32:00,66.0,65.0,29.71,WSW,248,3.0,5.0,95,0.00,,,0.02,,2013-07-23 10:32:00,
2013-07-23 05:44:00,66.0,65.0,29.71,WSW,250,2.0,6.0,95,0.00,,,0.02,,2013-07-23 10:44:00,
2013-07-23 05:52:00,66.0,65.0,29.71,WSW,250,2.0,6.0,95,0.00,,,0.02,,2013-07-23 10:52:00,
2013-07-23 06:02:00,66.0,65.0,29.71,WSW,247,2.0,4.0,95,0.00,,,0.02,,2013-07-23 11:02:00,
2013-07-23 06:12:00,66.0,65.0,29.72,WSW,238,2.0,4.0,95,0.00,,,0.02,,2013-07-23 11:12:00,
2013-07-23 06:22:00,66.0,65.0,29.72,WSW,238,2.0,4.0,95,0.00,,,0.02,,2013-07-23 11:22:00,
2013-07-23 06:32:00,67.0,66.0,29.72,WSW,256,3.0,6.0,96,0.00,,,0.02,,2013-07-23 11:32:00,
2013-07-23 06:43:00,67.0,66.0,29.71,WSW,255,4.0,7.0,96,0.00,,,0.02,,2013-07-23 11:43:00,
2013-07-23 06:52:00,67.0,66.0,29.71,WSW,255,4.0,7.0,96,0.00,,,0.02,,2013-07-23 11:52:00,
2013-07-23 07:02:00,67.0,66.0,29.72,West,268,3.0,6.0,96,0.00,,,0.02,,2013-07-23 12:02:00,
2013-07-23 07:11:00,67.0,66.0,29.72,West,270,3.0,7.0,95,0.00,,,0.02,,2013-07-23 12:11:00,
2013-07-23 07:22:00,67.0,66.0,29.72,West,270,3.0,7.0,95,0.00,,,0.02,,2013-07-23 12:22:00,
2013-07-23 07:33:00,68.0,67.0,29.72,WSW,250,4.0,6.0,95,0.00,,,0.02,,2013-07-23 12:33:00,
2013-07-23 07:43:00,69.0,67.0,29.72,WSW,247,4.0,9.0,93,0.00,,,0.02,,2013-07-23 12:43:00,
2013-07-23 08:01:00,69.0,66.0,29.72,West,280,5.0,10.0,91,0.00,,,0.02,,2013-07-23 13:01:00,
2013-07-23 08:11:00,70.0,67.0,29.73,WNW,291,4.0,8.0,90,0.00,,,0.02,,2013-07-23 13:11:00,
2013-07-23 08:22:00,70.0,67.0,29.73,WNW,291,4.0,8.0,90,0.00,,,0.02,,2013-07-23 13:22:00,
2013-07-23 08:32:00,71.0,68.0,29.73,West,276,5.0,8.0,89,0.00,,,0.02,,2013-07-23 13:32:00,
2013-07-23 08:43:00,71.0,67.0,29.73,West,271,4.0,8.0,88,0.00,,,0.02,,2013-07-23 13:43:00,
2013-07-23 08:52:00,71.0,67.0,29.73,West,271,4.0,8.0,88,0.00,,,0.02,,2013-07-23 13:52:00,
2013-07-23 09:02:00,72.0,68.0,29.74,West,272,3.0,11.0,87,0.00,,,0.02,,2013-07-23 14:02:00,
2013-07-23 09:12:00,72.0,67.0,29.75,West,273,4.0,10.0,85,0.00,,,0.02,,2013-07-23 14:12:00,
2013-07-23 09:22:00,72.0,67.0,29.75,West,273,4.0,10.0,85,0.00,,,0.02,,2013-07-23 14:22:00,
2013-07-23 09:32:00,73.0,69.0,29.75,West,271,2.0,9.0,86,0.00,,,0.02,,2013-07-23 14:32:00,
2013-07-23 09:44:00,74.0,68.0,29.75,WNW,284,4.0,12.0,83,0.00,,,0.02,,2013-07-23 14:44:00,
2013-07-23 09:53:00,74.0,68.0,29.75,WNW,284,4.0,12.0,83,0.00,,,0.02,,2013-07-23 14:53:00,
2013-07-23 10:03:00,74.0,68.0,29.74,West,271,5.0,9.0,83,0.00,,,0.02,,2013-07-23 15:03:00,
2013-07-23 10:11:00,75.0,70.0,29.75,NW,304,1.0,8.0,85,0.00,,,0.02,,2013-07-23 15:11:00,
2013-07-23 10:24:00,75.0,70.0,29.75,NW,304,1.0,8.0,85,0.00,,,0.02,,2013-07-23 15:24:00,
2013-07-23 10:32:00,75.0,69.0,29.75,WNW,283,3.0,10.0,82,0.00,,,0.02,,2013-07-23 15:32:00,
2013-07-23 10:43:00,75.0,69.0,29.76,West,269,3.0,10.0,83,0.00,,,0.02,,2013-07-23 15:43:00,
2013-07-23 10:52:00,75.0,69.0,29.76,West,269,3.0,10.0,83,0.00,,,0.02,,2013-07-23 15:52:00,
2013-07-23 11:01:00,76.0,70.0,29.76,West,265,4.0,8.0,82,0.00,,,0.02,,2013-07-23 16:01:00,
2013-07-23 11:12:00,76.0,70.0,29.76,WNW,296,3.0,10.0,81,0.00,,,0.02,,2013-07-23 16:12:00,
2013-07-23 11:22:00,76.0,70.0,29.76,WNW,296,3.0,10.0,81,0.00,,,0.02,,2013-07-23 16:22:00,
2013-07-23 11:33:00,76.0,70.0,29.77,WNW,292,4.0,11.0,81,0.00,,,0.02,,2013-07-23 16:33:00,
2013-07-23 11:43:00,77.0,71.0,29.77,NNW,348,3.0,8.0,81,0.00,,,0.02,,2013-07-23 16:43:00,
2013-07-23 11:52:00,77.0,71.0,29.77,NNW,348,3.0,8.0,81,0.00,,,0.02,,2013-07-23 16:52:00,
2013-07-23 12:02:00,77.0,70.0,29.78,NW,309,4.0,8.0,78,0.00,,,0.02,,2013-07-23 17:02:00,
2013-07-23 12:11:00,77.0,70.0,29.78,WNW,296,3.0,11.0,80,0.00,,,0.02,,2013-07-23 17:11:00,
2013-07-23 12:22:00,77.0,70.0,29.78,WNW,296,3.0,11.0,80,0.00,,,0.02,,2013-07-23 17:22:00,
2013-07-23 12:32:00,79.0,71.0,29.78,NNW,344,3.0,8.0,76,0.00,,,0.02,,2013-07-23 17:32:00,
2013-07-23 12:42:00,79.0,70.0,29.78,WNW,289,3.0,10.0,73,0.00,,,0.02,,2013-07-23 17:42:00,
2013-07-23 12:54:00,79.0,70.0,29.78,WNW,289,3.0,10.0,73,0.00,,,0.02,,2013-07-23 17:54:00,
2013-07-23 13:04:00,79.0,70.0,29.78,North,5,4.0,8.0,75,0.00,,,0.02,,2013-07-23 18:04:00,
2013-07-23 13:12:00,79.0,70.0,29.78,WNW,303,4.0,10.0,74,0.00,,,0.02,,2013-07-23 18:12:00,
2013-07-23 13:24:00,79.0,70.0,29.78,WNW,303,4.0,10.0,74,0.00,,,0.02,,2013-07-23 18:24:00,
2013-07-23 13:34:00,80.0,70.0,29.78,WNW,285,6.0,11.0,71,0.00,,,0.02,,2013-07-23 18:34:00,
2013-07-23 13:47:00,79.0,68.0,29.78,NNW,329,4.0,10.0,70,0.00,,,0.02,,2013-07-23 18:47:00,
2013-07-23 13:54:00,79.0,68.0,29.78,NNW,329,4.0,10.0,70,0.00,,,0.02,,2013-07-23 18:54:00,
2013-07-23 14:03:00,79.0,68.0,29.78,NNW,329,4.0,10.0,70,0.00,,,0.02,,2013-07-23 19:03:00,
2013-07-23 14:15:00,79.0,68.0,29.79,NNE,20,3.0,11.0,69,0.00,,,0.02,,2013-07-23 19:15:00,
2013-07-23 14:26:00,79.0,68.0,29.79,NNE,20,3.0,11.0,69,0.00,,,0.02,,2013-07-23 19:26:00,
2013-07-23 14:33:00,80.0,67.0,29.79,WSW,253,6.0,11.0,64,0.00,,,0.02,,2013-07-23 19:33:00,
2013-07-23 14:46:00,80.0,67.0,29.78,WSW,257,3.0,11.0,65,0.00,,,0.02,,2013-07-23 19:46:00,
2013-07-23 14:53:00,80.0,67.0,29.78,WSW,257,3.0,11.0,65,0.00,,,0.02,,2013-07-23 19:53:00,
2013-07-23 15:05:00,78.0,67.0,29.78,NW,306,2.0,8.0,69,0.00,,,0.02,,2013-07-23 20:05:00,
2013-07-23 15:13:00,78.0,66.0,29.79,North,5,2.0,9.0,67,0.00,,,0.02,,2013-07-23 20:13:00,
2013-07-23 15:23:00,78.0,66.0,29.79,North,5,2.0,9.0,67,0.00,,,0.02,,2013-07-23 20:23:00,
2013-07-23 15:34:00,77.0,65.0,29.79,NW,305,3.0,11.0,66,0.00,,,0.02,,2013-07-23 20:34:00,
2013-07-23 15:44:00,78.0,65.0,29.79,West,277,4.0,10.0,65,0.00,,,0.02,,2013-07-23 20:44:00,
2013-07-23 15:56:00,78.0,65.0,29.79,West,277,4.0,10.0,65,0.00,,,0.02,,2013-07-23 20:56:00,
2013-07-23 16:04:00,78.0,64.0,29.79,NW,308,4.0,9.0,62,0.00,,,0.02,,2013-07-23 21:04:00,
2013-07-23 16:14:00,78.0,64.0,29.78,North,5,3.0,9.0,62,0.00,,,0.02,,2013-07-23 21:14:00,
2013-07-23 16:23:00,78.0,64.0,29.78,North,5,3.0,9.0,62,0.00,,,0.02,,2013-07-23 21:23:00,
2013-07-23 16:36:00,77.0,63.0,29.79,WNW,285,3.0,8.0,63,0.00,,,0.02,,2013-07-23 21:36:00,
2013-07-23 16:47:00,76.0,62.0,29.79,NW,311,3.0,11.0,63,0.00,,,0.02,,2013-07-23 21:47:00,
2013-07-23 16:54:00,76.0,62.0,29.79,NW,311,3.0,11.0,63,0.00,,,0.02,,2013-07-23 21:54:00,
2013-07-23 17:05:00,75.0,62.0,29.78,NW,306,5.0,11.0,63,0.00,,,0.02,,2013-07-23 22:05:00,
2013-07-23 17:12:00,75.0,61.0,29.78,NNE,20,6.0,11.0,62,0.00,,,0.02,,2013-07-23 22:12:00,
2013-07-23 17:24:00,75.0,61.0,29.78,NNE,20,6.0,11.0,62,0.00,,,0.02,,2013-07-23 22:24:00,
2013-07-23 17:45:00,76.0,62.0,29.79,NNE,15,4.0,9.0,62,0.00,,,0.02,,2013-07-23 22:45:00,
2013-07-23 17:56:00,76.0,62.0,29.79,NNE,15,4.0,9.0,62,0.00,,,0.02,,2013-07-23 22:56:00,
2013-07-23 18:05:00,75.0,61.0,29.79,NNE,29,4.0,9.0,61,0.00,,,0.02,,2013-07-23 23:05:00,
2013-07-23 18:13:00,76.0,62.0,29.79,North,355,3.0,8.0,62,0.00,,,0.02,,2013-07-23 23:13:00,
2013-07-23 18:24:00,76.0,62.0,29.79,North,355,3.0,8.0,62,0.00,,,0.02,,2013-07-23 23:24:00,
2013-07-23 18:35:00,76.0,61.0,29.79,North,355,3.0,8.0,60,0.00,,,0.02,,2013-07-23 23:35:00,
2013-07-23 18:44:00,76.0,61.0,29.79,NNE,16,5.0,9.0,59,0.00,,,0.02,,2013-07-23 23:44:00,
2013-07-23 18:56:00,76.0,61.0,29.79,NNE,16,5.0,9.0,59,0.00,,,0.02,,2013-07-23 23:56:00,
2013-07-23 19:08:00,75.0,60.0,29.80,North,9,4.0,12.0,59,0.00,,,0.02,,2013-07-24 00:08:00,
2013-07-23 19:14:00,74.0,59.0,29.80,NNW,345,4.0,9.0,59,0.00,,,0.02,,2013-07-24 00:14:00,
2013-07-23 19:26:00,74.0,59.0,29.80,NNW,345,4.0,9.0,59,0.00,,,0.02,,2013-07-24 00:26:00,
2013-07-23 19:34:00,73.0,58.0,29.80,NNE,19,3.0,7.0,60,0.00,,,0.02,,2013-07-24 00:34:00,
2013-07-23 19:47:00,73.0,58.0,29.80,North,351,3.0,7.0,60,0.00,,,0.02,,2013-07-24 00:47:00,
2013-07-23 19:54:00,73.0,58.0,29.80,North,351,3.0,7.0,60,0.00,,,0.02,,2013-07-24 00:54:00,
2013-07-23 20:04:00,73.0,59.0,29.81,North,5,1.0,6.0,62,0.00,,,0.02,,2013-07-24 01:04:00,
2013-07-23 20:24:00,72.0,60.0,29.81,North,355,2.0,3.0,65,0.00,,,0.02,,2013-07-24 01:24:00,
2013-07-23 20:33:00,70.0,59.0,29.82,North,360,0.0,2.0,69,0.00,,,0.02,,2013-07-24 01:33:00,
2013-07-23 20:44:00,69.0,59.0,29.82,North,360,1.0,3.0,71,0.00,,,0.02,,2013-07-24 01:44:00,
2013-07-23 20:56:00,69.0,59.0,29.82,North,360,1.0,3.0,71,0.00,,,0.02,,2013-07-24 01:56:00,
2013-07-23 21:05:00,68.0,60.0,29.83,ENE,60,3.0,9.0,76,0.00,,,0.02,,2013-07-24 02:05:00,
2013-07-23 21:38:00,66.0,61.0,29.85,ENE,67,3.0,7.0,83,0.00,,,0.02,,2013-07-24 02:38:00,
2013-07-23 21:47:00,65.0,61.0,29.87,ENE,69,2.0,3.0,86,0.00,,,0.02,,2013-07-24 02:47:00,
2013-07-23 21:55:00,65.0,61.0,29.87,ENE,69,2.0,3.0,86,0.00,,,0.02,,2013-07-24 02:55:00,
2013-07-23 22:04:00,64.0,60.0,29.87,ENE,75,2.0,4.0,88,0.00,,,0.02,,2013-07-24 03:04:00,
2013-07-23 22:13:00,63.0,60.0,29.88,ENE,69,3.0,5.0,89,0.00,,,0.02,,2013-07-24 03:13:00,
2013-07-23 22:37:00,63.0,59.0,29.89,ENE,67,3.0,5.0,87,0.00,,,0.02,,2013-07-24 03:37:00,
2013-07-23 22:45:00,63.0,59.0,29.90,ENE,69,2.0,4.0,88,0.00,,,0.02,,2013-07-24 03:45:00,
2013-07-23 22:54:00,63.0,59.0,29.90,ENE,69,2.0,4.0,88,0.00,,,0.02,,2013-07-24 03:54:00,
2013-07-23 23:01:00,62.0,58.0,29.91,ENE,71,2.0,5.0,88,0.00,,,0.02,,2013-07-24 04:01:00,
2013-07-23 23:11:00,62.0,58.0,29.91,ENE,75,2.0,5.0,88,0.00,,,0.02,,2013-07-24 04:11:00,
2013-07-23 23:22:00,62.0,58.0,29.91,ENE,75,2.0,5.0,88,0.00,,,0.02,,2013-07-24 04:22:00,
2013-07-23 23:32:00,61.0,58.0,29.91,ENE,76,1.0,4.0,89,0.00,,,0.02,,2013-07-24 04:32:00,
2013-07-23 23:43:00,61.0,58.0,29.91,ENE,76,1.0,3.0,89,0.00,,,0.02,,2013-07-24 04:43:00,
2013-07-23 23:52:00,61.0,58.0,29.91,ENE,76,1.0,3.0,89,0.00,,,0.02,,2013-07-24 04:52:00,